Time;durP1;ratioP1;P1;durP2;ratioP2;P2;SDS_P1;SDS_P2;PMS_P1;PMS_P2;Temp;Humidity;BMP_temperature;BMP_pressure;BME280_temperature;BME280_humidity;BME280_pressure;Samples;Min_cycle;Max_cycle;Signal;HPM_P1;HPM_P2
2022/07/31 00:00:38;;;;;;;8.73;3.08;;;19.10;99.90;;;;;;5000766;28;20046;-47
2022/07/31 00:03:05;;;;;;;4.78;2.55;;;19.00;99.90;;;;;;5001369;28;20046;-50
2022/07/31 00:05:30;;;;;;;10.23;3.00;;;19.00;99.90;;;;;;4999875;28;20112;-48
2022/07/31 00:07:56;;;;;;;6.88;3.08;;;19.00;99.90;;;;;;4992286;28;20704;-52
2022/07/31 00:10:22;;;;;;;5.90;2.60;;;19.00;99.90;;;;;;4981888;28;20619;-47
2022/07/31 00:12:48;;;;;;;3.67;2.50;;;19.00;99.90;;;;;;4981738;28;20062;-47
2022/07/31 00:15:14;;;;;;;4.60;2.67;;;19.00;99.90;;;;;;4979576;28;20100;-49
2022/07/31 00:17:41;;;;;;;5.50;2.75;;;19.00;99.90;;;;;;4981012;28;20603;-49
2022/07/31 00:20:09;;;;;;;7.93;2.80;;;19.00;99.90;;;;;;4982135;28;20042;-49
2022/07/31 00:22:34;;;;;;;8.02;2.80;;;19.00;99.90;;;;;;4980449;28;20039;-48
2022/07/31 00:25:00;;;;;;;9.07;2.50;;;18.90;99.90;;;;;;4996733;28;20050;-49
2022/07/31 00:27:26;;;;;;;5.43;2.75;;;19.00;99.90;;;;;;4980531;28;20062;-48
2022/07/31 00:29:51;;;;;;;5.82;3.20;;;18.90;99.90;;;;;;4981183;28;20694;-51
2022/07/31 00:32:17;;;;;;;5.97;3.20;;;18.90;99.90;;;;;;4981312;28;20074;-48
2022/07/31 00:34:43;;;;;;;4.70;2.85;;;18.90;99.90;;;;;;4982082;28;20054;-48
2022/07/31 00:37:10;;;;;;;6.65;2.75;;;18.90;99.90;;;;;;4980808;28;20038;-50
2022/07/31 00:39:35;;;;;;;5.50;2.70;;;18.90;99.90;;;;;;4981500;28;20271;-47
2022/07/31 00:42:01;;;;;;;6.20;2.70;;;18.80;99.90;;;;;;4980872;28;20058;-48
2022/07/31 00:44:27;;;;;;;4.68;2.80;;;18.90;99.90;;;;;;4980278;28;20054;-48
2022/07/31 00:46:53;;;;;;;6.70;3.03;;;18.90;99.90;;;;;;4981026;28;20057;-47
2022/07/31 00:49:19;;;;;;;6.45;3.08;;;18.90;99.90;;;;;;4981041;28;20440;-49
2022/07/31 00:51:45;;;;;;;4.95;2.60;;;18.90;99.90;;;;;;4980381;28;20051;-48
2022/07/31 00:54:11;;;;;;;6.90;2.88;;;18.90;99.90;;;;;;4981643;28;20077;-49
2022/07/31 00:56:36;;;;;;;7.05;3.20;;;18.90;99.90;;;;;;4978989;28;20382;-50
2022/07/31 00:59:03;;;;;;;4.90;3.28;;;18.90;99.90;;;;;;4980926;28;20041;-48
2022/07/31 01:01:29;;;;;;;4.47;2.88;;;18.90;99.90;;;;;;4980822;28;20042;-49
2022/07/31 01:03:55;;;;;;;4.38;2.95;;;18.80;99.90;;;;;;4981089;28;20046;-49
2022/07/31 01:06:20;;;;;;;4.32;2.78;;;18.80;99.90;;;;;;4977904;28;20125;-50
2022/07/31 01:08:46;;;;;;;4.28;3.15;;;18.90;99.90;;;;;;4987303;28;20042;-52
2022/07/31 01:11:18;;;;;;;6.93;3.40;;;18.90;99.90;;;;;;4981010;28;20065;-48
2022/07/31 01:13:55;;;;;;;7.57;3.50;;;18.80;99.90;;;;;;4980087;28;20082;-48
2022/07/31 01:16:25;;;;;;;4.82;3.10;;;18.70;99.90;;;;;;4980226;28;20188;-49
2022/07/31 01:18:54;;;;;;;8.10;3.10;;;18.70;99.90;;;;;;4980867;28;20125;-48
2022/07/31 01:21:38;;;;;;;7.10;3.45;;;18.70;99.90;;;;;;4978180;28;20046;-48
2022/07/31 01:24:22;;;;;;;7.47;3.40;;;18.70;99.90;;;;;;4980671;28;20479;-48
2022/07/31 01:26:59;;;;;;;5.28;3.67;;;18.60;99.90;;;;;;4980010;28;20085;-48
2022/07/31 01:29:33;;;;;;;7.40;3.25;;;18.60;99.90;;;;;;4979629;28;20058;-49
2022/07/31 01:32:04;;;;;;;6.57;3.50;;;18.50;99.90;;;;;;4980411;28;20058;-49
2022/07/31 01:34:30;;;;;;;6.00;3.40;;;18.50;99.90;;;;;;4980093;28;20412;-49
2022/07/31 01:37:09;;;;;;;5.88;3.60;;;18.50;99.90;;;;;;4980319;28;20046;-51
2022/07/31 01:39:36;;;;;;;5.22;3.38;;;18.50;99.90;;;;;;4979788;28;20054;-48
2022/07/31 01:42:05;;;;;;;5.43;3.50;;;18.50;99.90;;;;;;4980065;28;20050;-51
2022/07/31 01:44:38;;;;;;;7.57;4.00;;;18.40;99.90;;;;;;4979268;28;20050;-48
2022/07/31 01:47:05;;;;;;;6.45;4.10;;;18.40;99.90;;;;;;4978781;28;20754;-48
2022/07/31 01:49:32;;;;;;;6.25;3.63;;;18.30;99.90;;;;;;4979079;28;20102;-48
2022/07/31 01:51:59;;;;;;;6.03;3.75;;;18.30;99.90;;;;;;4980266;28;20445;-50
2022/07/31 01:54:27;;;;;;;7.53;3.75;;;18.20;99.90;;;;;;4979154;28;20054;-50
2022/07/31 01:56:55;;;;;;;5.97;3.90;;;18.20;99.90;;;;;;4979202;28;20758;-49
2022/07/31 01:59:22;;;;;;;5.53;4.00;;;18.20;99.90;;;;;;4978847;28;20428;-47
2022/07/31 02:01:49;;;;;;;9.38;3.80;;;18.10;99.90;;;;;;4978733;28;20061;-49
2022/07/31 02:04:17;;;;;;;6.20;4.00;;;18.10;99.90;;;;;;4980193;28;20038;-48
2022/07/31 02:06:47;;;;;;;7.20;3.92;;;18.00;99.90;;;;;;4983546;28;20042;-50
2022/07/31 02:09:16;;;;;;;8.65;4.22;;;18.00;99.90;;;;;;4986000;28;20050;-48
2022/07/31 02:11:43;;;;;;;6.05;4.20;;;18.00;99.90;;;;;;4980357;28;20464;-52
2022/07/31 02:14:09;;;;;;;6.30;4.00;;;18.00;99.90;;;;;;4976991;28;20532;-50
2022/07/31 02:16:36;;;;;;;5.15;4.05;;;17.90;99.90;;;;;;4979708;28;20050;-51
2022/07/31 02:19:04;;;;;;;8.30;4.35;;;17.90;99.90;;;;;;4979604;28;20129;-48
2022/07/31 02:21:30;;;;;;;6.13;4.05;;;17.90;99.90;;;;;;4979555;28;20056;-48
2022/07/31 02:23:56;;;;;;;6.53;4.07;;;17.90;99.90;;;;;;4978032;28;20063;-50
2022/07/31 02:26:22;;;;;;;5.28;4.15;;;17.90;99.90;;;;;;4978052;28;20046;-48
2022/07/31 02:28:49;;;;;;;6.60;4.28;;;17.90;99.90;;;;;;4978999;28;20718;-48
2022/07/31 02:31:17;;;;;;;6.05;4.38;;;17.90;99.90;;;;;;4979891;28;20039;-49
2022/07/31 02:33:45;;;;;;;8.57;4.45;;;17.90;99.90;;;;;;4979103;28;20049;-48
2022/07/31 02:36:13;;;;;;;8.30;4.03;;;17.90;99.90;;;;;;4979800;28;20050;-49
2022/07/31 02:38:41;;;;;;;8.80;4.38;;;17.90;99.90;;;;;;4977989;28;20100;-49
2022/07/31 02:41:10;;;;;;;6.30;4.00;;;17.90;99.90;;;;;;4978735;28;20128;-46
2022/07/31 02:43:36;;;;;;;5.90;3.78;;;17.90;99.90;;;;;;4978442;28;20427;-50
2022/07/31 02:46:04;;;;;;;6.28;3.58;;;17.90;99.90;;;;;;4979380;28;20121;-50
2022/07/31 02:48:31;;;;;;;6.72;4.15;;;17.90;99.90;;;;;;4979251;28;20129;-48
2022/07/31 02:50:57;;;;;;;5.63;3.63;;;17.90;99.90;;;;;;4978865;28;20501;-49
2022/07/31 02:53:23;;;;;;;5.88;3.67;;;17.90;99.90;;;;;;4979087;28;20117;-48
2022/07/31 02:55:50;;;;;;;5.35;3.45;;;17.80;99.90;;;;;;4979369;28;20038;-47
2022/07/31 02:58:16;;;;;;;4.50;3.70;;;17.90;99.90;;;;;;4978390;28;20046;-49
2022/07/31 03:00:41;;;;;;;8.68;3.83;;;17.90;99.90;;;;;;4978849;28;20726;-50
2022/07/31 03:03:07;;;;;;;5.13;4.00;;;17.90;99.90;;;;;;4979288;28;20054;-51
2022/07/31 03:05:33;;;;;;;6.57;4.35;;;17.90;99.90;;;;;;4979906;28;20109;-50
2022/07/31 03:07:58;;;;;;;5.85;3.85;;;17.80;99.90;;;;;;4997120;28;20046;-49
2022/07/31 03:10:24;;;;;;;7.68;4.00;;;17.90;99.90;;;;;;4980826;28;20050;-48
2022/07/31 03:12:53;;;;;;;7.43;4.10;;;17.80;99.90;;;;;;4981160;28;20413;-48
2022/07/31 03:15:22;;;;;;;7.32;3.88;;;17.80;99.90;;;;;;4982691;28;20157;-47
2022/07/31 03:17:48;;;;;;;5.82;4.15;;;17.80;99.90;;;;;;4982515;28;20377;-48
2022/07/31 03:20:15;;;;;;;5.40;4.03;;;17.90;99.90;;;;;;4983154;28;20202;-50
2022/07/31 03:22:41;;;;;;;4.95;4.05;;;17.80;99.90;;;;;;4982775;28;20066;-48
2022/07/31 03:25:07;;;;;;;6.38;4.35;;;17.90;99.90;;;;;;4983070;28;20169;-48
2022/07/31 03:27:33;;;;;;;7.18;4.13;;;17.80;99.90;;;;;;4982267;28;20042;-50
2022/07/31 03:29:59;;;;;;;7.93;4.40;;;17.80;99.90;;;;;;4981950;28;20046;-48
2022/07/31 03:32:24;;;;;;;6.13;4.55;;;17.80;99.90;;;;;;4982330;28;20035;-49
2022/07/31 03:34:50;;;;;;;5.25;4.15;;;17.80;99.90;;;;;;4982722;28;20650;-48
2022/07/31 03:37:16;;;;;;;8.10;4.45;;;17.70;99.90;;;;;;4981580;28;20043;-48
2022/07/31 03:39:41;;;;;;;5.97;4.13;;;17.70;99.90;;;;;;4982946;28;20075;-49
2022/07/31 03:42:10;;;;;;;6.35;4.57;;;17.70;99.90;;;;;;4982324;28;20060;-49
2022/07/31 03:44:38;;;;;;;7.63;4.85;;;17.70;99.90;;;;;;4981734;28;20057;-50
2022/07/31 03:47:04;;;;;;;6.65;4.30;;;17.70;99.90;;;;;;4982095;28;20046;-48
2022/07/31 03:49:32;;;;;;;7.13;4.03;;;17.70;99.90;;;;;;4981790;28;20089;-48
2022/07/31 03:51:58;;;;;;;7.82;4.63;;;17.70;99.90;;;;;;4982080;28;20093;-50
2022/07/31 03:54:24;;;;;;;9.13;4.80;;;17.60;99.90;;;;;;4980661;28;20086;-48
2022/07/31 03:56:51;;;;;;;6.18;4.18;;;17.70;99.90;;;;;;4981860;28;20046;-47
2022/07/31 03:59:18;;;;;;;7.70;4.60;;;17.70;99.90;;;;;;4980874;28;20038;-50
2022/07/31 04:01:44;;;;;;;5.55;4.40;;;17.70;99.90;;;;;;4981396;28;20108;-48
2022/07/31 04:04:12;;;;;;;7.07;4.20;;;17.60;99.90;;;;;;4981395;28;20046;-47
2022/07/31 04:06:39;;;;;;;6.00;4.40;;;17.60;99.90;;;;;;4985593;28;20046;-47
2022/07/31 04:09:05;;;;;;;8.05;4.45;;;17.60;99.90;;;;;;4989288;28;20049;-48
2022/07/31 04:11:30;;;;;;;5.40;4.30;;;17.60;99.90;;;;;;4996792;28;20494;-47
2022/07/31 04:13:56;;;;;;;7.68;4.80;;;17.60;99.90;;;;;;4980276;28;20145;-48
2022/07/31 04:16:22;;;;;;;6.00;4.68;;;17.60;99.90;;;;;;4981696;28;20050;-48
2022/07/31 04:18:48;;;;;;;9.55;4.82;;;17.50;99.90;;;;;;4981301;28;20043;-47
2022/07/31 04:21:13;;;;;;;6.97;4.60;;;17.60;99.90;;;;;;4981871;28;20113;-47
2022/07/31 04:23:39;;;;;;;8.95;4.55;;;17.50;99.90;;;;;;4980843;28;20042;-47
2022/07/31 04:26:05;;;;;;;5.78;4.70;;;17.50;99.90;;;;;;4981859;28;20049;-49
2022/07/31 04:28:30;;;;;;;5.93;4.63;;;17.50;99.90;;;;;;4980671;28;20524;-48
2022/07/31 04:30:56;;;;;;;5.95;4.13;;;17.50;99.90;;;;;;4981730;28;20034;-47
2022/07/31 04:33:21;;;;;;;7.00;4.47;;;17.50;99.90;;;;;;4980703;28;20077;-48
2022/07/31 04:35:47;;;;;;;5.45;4.25;;;17.50;99.90;;;;;;4981433;28;20477;-49
2022/07/31 04:38:15;;;;;;;8.00;4.25;;;17.60;99.90;;;;;;4982099;28;20042;-49
2022/07/31 04:40:41;;;;;;;6.55;4.50;;;17.60;99.90;;;;;;4981986;28;20061;-48
2022/07/31 04:43:07;;;;;;;8.15;4.38;;;17.60;99.90;;;;;;4979957;28;20030;-49
2022/07/31 04:45:33;;;;;;;8.15;4.43;;;17.70;99.90;;;;;;4981216;28;20050;-47
2022/07/31 04:47:58;;;;;;;6.10;4.03;;;17.60;99.90;;;;;;4979748;28;20042;-50
2022/07/31 04:50:24;;;;;;;6.68;4.63;;;17.60;99.90;;;;;;4980425;28;20478;-50
2022/07/31 04:52:50;;;;;;;6.40;4.18;;;17.70;99.90;;;;;;4981294;28;20045;-50
2022/07/31 04:55:15;;;;;;;5.45;4.10;;;17.70;99.90;;;;;;4980848;28;20132;-50
2022/07/31 04:57:41;;;;;;;5.82;4.30;;;17.80;99.90;;;;;;4980462;28;20049;-47
2022/07/31 05:00:09;;;;;;;5.45;4.22;;;17.80;99.90;;;;;;4980763;28;20046;-50
2022/07/31 05:02:35;;;;;;;5.25;4.38;;;17.90;99.90;;;;;;4981045;28;20764;-48
2022/07/31 05:05:00;;;;;;;6.35;4.55;;;18.00;99.90;;;;;;4979757;28;20054;-47
2022/07/31 05:07:26;;;;;;;6.05;4.55;;;18.00;99.90;;;;;;4994992;28;20050;-47
2022/07/31 05:09:52;;;;;;;6.65;4.57;;;18.20;99.90;;;;;;4980814;28;20770;-48
2022/07/31 05:12:17;;;;;;;6.32;4.38;;;18.50;99.90;;;;;;4980373;28;20532;-51
2022/07/31 05:14:43;;;;;;;5.55;4.32;;;18.70;99.90;;;;;;4980625;28;20054;-50
2022/07/31 05:17:09;;;;;;;6.03;5.00;;;18.80;99.90;;;;;;4980802;28;20077;-51
2022/07/31 05:19:34;;;;;;;8.48;4.80;;;18.90;99.90;;;;;;4979427;28;20065;-46
2022/07/31 05:22:00;;;;;;;7.18;4.10;;;18.80;99.90;;;;;;4980784;28;20100;-47
2022/07/31 05:24:27;;;;;;;4.90;4.20;;;18.60;99.90;;;;;;4980281;28;20701;-47
2022/07/31 05:26:53;;;;;;;6.65;5.07;;;18.40;99.90;;;;;;4980563;28;20085;-49
2022/07/31 05:29:18;;;;;;;7.28;5.07;;;18.40;99.90;;;;;;4978786;28;20113;-48
2022/07/31 05:31:44;;;;;;;6.55;5.55;;;18.30;99.90;;;;;;4980790;28;20673;-48
2022/07/31 05:34:10;;;;;;;6.22;4.72;;;18.30;99.90;;;;;;4980381;28;20042;-47
2022/07/31 05:36:35;;;;;;;7.43;4.82;;;18.30;99.90;;;;;;4978748;28;20605;-49
2022/07/31 05:39:01;;;;;;;9.90;5.65;;;18.40;99.90;;;;;;4979634;28;20108;-49
2022/07/31 05:41:28;;;;;;;8.18;5.28;;;18.40;99.90;;;;;;4979599;28;20065;-50
2022/07/31 05:43:54;;;;;;;6.85;4.97;;;18.40;99.90;;;;;;4978367;28;20057;-49
2022/07/31 05:46:19;;;;;;;8.68;5.38;;;18.50;99.90;;;;;;4979541;28;20046;-47
2022/07/31 05:48:45;;;;;;;5.68;4.43;;;18.50;99.90;;;;;;4979733;28;20482;-54
2022/07/31 05:51:12;;;;;;;5.85;5.20;;;18.50;99.90;;;;;;4980357;28;20088;-48
2022/07/31 05:53:39;;;;;;;6.97;4.93;;;18.60;99.90;;;;;;4980230;28;20134;-48
2022/07/31 05:56:06;;;;;;;7.90;5.18;;;18.60;99.90;;;;;;4979983;28;20057;-48
2022/07/31 05:58:32;;;;;;;5.47;4.57;;;18.70;99.90;;;;;;4978441;28;20092;-47
2022/07/31 06:00:59;;;;;;;5.47;4.93;;;18.70;99.90;;;;;;4978916;28;20046;-48
2022/07/31 06:03:30;;;;;;;6.45;4.88;;;18.70;99.90;;;;;;4979898;28;20049;-47
2022/07/31 06:05:56;;;;;;;6.63;4.88;;;18.80;99.90;;;;;;4981477;28;20042;-50
2022/07/31 06:08:22;;;;;;;6.10;4.85;;;18.80;99.90;;;;;;4988252;28;20301;-48
2022/07/31 06:10:47;;;;;;;7.35;5.30;;;18.90;99.90;;;;;;4979912;28;20058;-49
2022/07/31 06:13:13;;;;;;;7.80;4.95;;;19.00;99.90;;;;;;4979075;28;20073;-49
2022/07/31 06:15:40;;;;;;;6.53;4.45;;;19.00;99.90;;;;;;4978813;28;20061;-48
2022/07/31 06:18:06;;;;;;;8.63;5.63;;;19.00;99.90;;;;;;4979952;28;20050;-50
2022/07/31 06:20:32;;;;;;;7.03;5.40;;;19.00;99.90;;;;;;4979758;28;20125;-46
2022/07/31 06:22:58;;;;;;;7.05;4.70;;;18.90;99.90;;;;;;4979832;28;20046;-48
2022/07/31 06:25:24;;;;;;;6.50;4.90;;;19.00;99.90;;;;;;4978482;28;20105;-47
2022/07/31 06:27:49;;;;;;;9.32;5.72;;;18.90;99.90;;;;;;4979072;28;20489;-48
2022/07/31 06:30:15;;;;;;;7.13;4.28;;;18.90;99.90;;;;;;4979775;28;20584;-48
2022/07/31 06:32:41;;;;;;;8.98;5.57;;;18.90;99.90;;;;;;4978916;28;20101;-47
2022/07/31 06:35:07;;;;;;;8.50;5.80;;;19.00;99.90;;;;;;4978744;28;20039;-51
2022/07/31 06:37:33;;;;;;;7.13;5.30;;;19.00;99.90;;;;;;4979436;28;20041;-47
2022/07/31 06:39:59;;;;;;;7.57;5.53;;;19.00;99.90;;;;;;4978711;28;20050;-51
2022/07/31 06:42:25;;;;;;;6.65;5.07;;;19.00;99.90;;;;;;4984703;28;20042;-51
2022/07/31 06:44:52;;;;;;;6.97;5.40;;;19.10;99.90;;;;;;4985335;28;20050;-48
2022/07/31 06:47:24;;;;;;;8.00;5.05;;;19.10;99.90;;;;;;4985545;28;20096;-48
2022/07/31 06:49:50;;;;;;;8.43;4.88;;;19.20;99.90;;;;;;4985936;28;20046;-48
2022/07/31 06:52:16;;;;;;;8.27;5.25;;;19.20;99.90;;;;;;4985665;28;20077;-56
2022/07/31 06:54:42;;;;;;;7.72;4.80;;;19.20;99.90;;;;;;4985724;28;20414;-51
2022/07/31 06:57:09;;;;;;;7.95;5.28;;;19.20;99.90;;;;;;4985944;28;20050;-49
2022/07/31 06:59:34;;;;;;;7.97;5.47;;;19.30;99.90;;;;;;4984903;28;20475;-47
2022/07/31 07:02:00;;;;;;;9.60;5.50;;;19.30;99.90;;;;;;4985782;28;20117;-49
2022/07/31 07:04:26;;;;;;;6.97;4.88;;;19.40;99.90;;;;;;4984128;28;20046;-51
2022/07/31 07:06:51;;;;;;;7.53;4.95;;;19.40;99.90;;;;;;4991433;28;20046;-48
2022/07/31 07:09:17;;;;;;;7.13;4.75;;;19.50;99.90;;;;;;4990367;28;20050;-51
2022/07/31 07:11:43;;;;;;;10.93;4.78;;;19.50;99.90;;;;;;4984618;28;20050;-47
2022/07/31 07:14:08;;;;;;;7.00;4.63;;;19.60;99.90;;;;;;4984135;28;20086;-47
2022/07/31 07:16:34;;;;;;;9.07;4.80;;;19.70;99.90;;;;;;4985564;28;20121;-47
2022/07/31 07:19:00;;;;;;;6.57;4.53;;;19.80;99.90;;;;;;4984578;28;20463;-48
2022/07/31 07:21:25;;;;;;;5.90;4.25;;;19.80;99.90;;;;;;4991496;28;20465;-49
2022/07/31 07:23:51;;;;;;;7.95;4.18;;;19.90;99.90;;;;;;5003860;28;20043;-51
2022/07/31 07:26:17;;;;;;;5.18;4.20;;;19.80;99.90;;;;;;5004513;28;20401;-50
2022/07/31 07:28:43;;;;;;;6.15;3.88;;;19.90;99.90;;;;;;5004492;28;20143;-48
2022/07/31 07:31:09;;;;;;;6.28;4.57;;;19.90;99.90;;;;;;5004823;28;20562;-48
2022/07/31 07:33:36;;;;;;;6.45;4.03;;;20.00;99.90;;;;;;5004116;28;20050;-47
2022/07/31 07:36:02;;;;;;;6.22;3.85;;;19.90;99.90;;;;;;5005120;28;20169;-49
2022/07/31 07:38:28;;;;;;;5.07;3.92;;;19.90;99.90;;;;;;4988777;28;20097;-49
2022/07/31 07:40:53;;;;;;;7.35;4.07;;;20.00;99.90;;;;;;4996230;28;20073;-49
2022/07/31 07:43:19;;;;;;;5.78;3.72;;;19.90;99.90;;;;;;4999074;28;20687;-47
2022/07/31 07:45:45;;;;;;;9.20;4.20;;;20.00;99.90;;;;;;5001952;28;20301;-50
2022/07/31 07:48:10;;;;;;;7.90;4.10;;;20.00;99.90;;;;;;5005130;28;20091;-52
2022/07/31 07:50:36;;;;;;;6.15;4.10;;;20.00;99.90;;;;;;4987042;28;20057;-51
2022/07/31 07:53:02;;;;;;;7.45;4.13;;;20.10;99.90;;;;;;5000836;28;20093;-48
2022/07/31 07:55:27;;;;;;;7.78;4.28;;;20.10;99.90;;;;;;5001455;28;20054;-52
2022/07/31 07:57:53;;;;;;;5.63;3.97;;;20.10;99.90;;;;;;5001054;28;20042;-49
2022/07/31 08:00:19;;;;;;;5.78;4.28;;;20.20;99.90;;;;;;5001489;28;20057;-47
2022/07/31 08:02:47;;;;;;;7.10;4.55;;;20.20;99.90;;;;;;5001593;28;20096;-49
2022/07/31 08:05:14;;;;;;;5.85;4.20;;;20.30;99.90;;;;;;4997480;28;20046;-46
2022/07/31 08:07:40;;;;;;;4.97;4.25;;;20.40;99.90;;;;;;4990442;28;20046;-49
2022/07/31 08:10:07;;;;;;;5.32;4.10;;;20.40;99.90;;;;;;5000778;28;20543;-50
2022/07/31 08:12:33;;;;;;;12.98;4.57;;;20.50;99.90;;;;;;4995418;28;20053;-50
2022/07/31 08:14:59;;;;;;;5.70;4.03;;;20.50;99.90;;;;;;4981934;28;20142;-50
2022/07/31 08:17:25;;;;;;;6.40;4.40;;;20.40;99.90;;;;;;4980260;28;20482;-49
2022/07/31 08:19:51;;;;;;;7.32;4.47;;;20.30;99.90;;;;;;4981174;28;20039;-48
2022/07/31 08:22:17;;;;;;;9.05;4.70;;;20.30;99.90;;;;;;4981344;28;20143;-54
2022/07/31 08:24:43;;;;;;;7.60;4.68;;;20.40;99.90;;;;;;4982192;28;20395;-49
2022/07/31 08:27:23;;;;;;;5.15;3.97;;;20.40;99.90;;;;;;4979783;28;20077;-46
2022/07/31 08:29:54;;;;;;;6.90;4.47;;;20.50;99.90;;;;;;4982020;28;20767;-48
2022/07/31 08:32:20;;;;;;;7.95;4.68;;;20.50;99.90;;;;;;4981381;28;20176;-50
2022/07/31 08:34:46;;;;;;;5.13;4.50;;;20.60;99.90;;;;;;4980161;28;20046;-48
2022/07/31 08:37:12;;;;;;;6.68;4.25;;;20.70;99.90;;;;;;4979552;28;20057;-49
2022/07/31 08:39:38;;;;;;;9.63;4.90;;;20.70;99.90;;;;;;4981311;28;20048;-46
2022/07/31 08:42:09;;;;;;;8.02;4.50;;;20.90;99.90;;;;;;4980750;28;20420;-47
2022/07/31 08:44:39;;;;;;;9.10;4.50;;;21.00;99.90;;;;;;4981174;28;20057;-47
2022/07/31 08:47:07;;;;;;;7.63;4.75;;;21.50;99.90;;;;;;4981163;28;20050;-48
2022/07/31 08:49:38;;;;;;;7.05;4.63;;;21.70;99.90;;;;;;4980908;28;20503;-49
2022/07/31 08:52:04;;;;;;;7.47;4.93;;;22.10;99.90;;;;;;4980750;28;20051;-47
2022/07/31 08:54:34;;;;;;;5.00;4.50;;;21.90;99.90;;;;;;4980048;28;20114;-47
2022/07/31 08:57:00;;;;;;;8.52;4.10;;;22.00;99.90;;;;;;4980129;28;20493;-48
2022/07/31 08:59:25;;;;;;;8.57;5.22;;;22.10;99.90;;;;;;4980674;28;20048;-47
2022/07/31 09:01:55;;;;;;;8.65;5.50;;;22.20;99.90;;;;;;4981348;28;20046;-47
2022/07/31 09:04:22;;;;;;;5.60;4.57;;;22.10;99.90;;;;;;4978996;28;20568;-47
2022/07/31 09:06:48;;;;;;;7.40;4.93;;;22.20;99.90;;;;;;4986072;28;20136;-49
2022/07/31 09:09:15;;;;;;;6.40;4.65;;;22.20;99.90;;;;;;4996269;28;20129;-49
2022/07/31 09:11:54;;;;;;;6.90;4.97;;;22.10;99.90;;;;;;4979283;28;20042;-47
2022/07/31 09:14:30;;;;;;;8.10;5.05;;;22.10;99.90;;;;;;4979806;28;20050;-51
2022/07/31 09:16:56;;;;;;;6.53;4.32;;;22.10;99.90;;;;;;4980740;28;20057;-52
2022/07/31 09:19:38;;;;;;;6.85;4.65;;;22.20;99.90;;;;;;4979764;28;20053;-50
2022/07/31 09:22:04;;;;;;;6.40;5.22;;;21.90;99.90;;;;;;4980551;28;20194;-47
2022/07/31 09:24:32;;;;;;;6.82;5.80;;;21.90;99.90;;;;;;4986817;28;20045;-50
2022/07/31 09:27:08;;;;;;;7.00;5.88;;;21.60;99.90;;;;;;4998568;28;20049;-49
2022/07/31 09:29:36;;;;;;;9.90;5.78;;;21.60;99.90;;;;;;4999675;28;20386;-50
2022/07/31 09:32:11;;;;;;;10.35;5.10;;;21.50;99.90;;;;;;5000133;28;20409;-49
2022/07/31 09:34:38;;;;;;;8.43;5.88;;;21.30;99.90;;;;;;4999743;28;20056;-47
2022/07/31 09:37:19;;;;;;;9.05;6.00;;;21.10;99.90;;;;;;4999456;28;20467;-47
2022/07/31 09:39:53;;;;;;;11.68;6.43;;;21.00;99.90;;;;;;4999145;28;20141;-46
2022/07/31 09:42:20;;;;;;;8.70;5.95;;;21.00;99.90;;;;;;4991770;28;20108;-51
2022/07/31 09:44:47;;;;;;;9.10;6.55;;;20.80;99.90;;;;;;4994537;28;20073;-48
2022/07/31 09:47:25;;;;;;;8.88;6.72;;;20.70;99.90;;;;;;4981045;28;20041;-47
2022/07/31 09:49:57;;;;;;;10.80;7.05;;;20.60;99.90;;;;;;4994180;28;20061;-51
2022/07/31 09:52:24;;;;;;;8.95;7.10;;;20.60;99.90;;;;;;4992514;28;20088;-47
2022/07/31 09:55:11;;;;;;;9.55;6.50;;;20.40;99.90;;;;;;4998464;28;20561;-48
2022/07/31 09:57:38;;;;;;;12.75;7.72;;;20.40;99.90;;;;;;4998103;28;20049;-52
2022/07/31 10:00:08;;;;;;;7.95;7.03;;;20.30;99.90;;;;;;4999086;28;20038;-49
2022/07/31 10:02:37;;;;;;;8.70;7.80;;;20.20;99.90;;;;;;4997750;28;20120;-48
2022/07/31 10:05:04;;;;;;;8.90;7.97;;;20.20;99.90;;;;;;4998891;28;20382;-49
2022/07/31 10:07:34;;;;;;;11.77;8.38;;;20.20;99.90;;;;;;4992088;28;20046;-47
2022/07/31 10:10:01;;;;;;;10.35;8.35;;;20.20;99.90;;;;;;4978683;28;20353;-47
2022/07/31 10:12:29;;;;;;;9.55;7.90;;;20.10;99.90;;;;;;4985230;28;20444;-49
2022/07/31 10:15:01;;;;;;;10.57;8.35;;;20.10;99.90;;;;;;4998259;28;20054;-48
2022/07/31 10:17:31;;;;;;;9.82;8.63;;;20.20;99.90;;;;;;4997802;28;20417;-48
2022/07/31 10:20:02;;;;;;;12.43;8.60;;;20.20;99.90;;;;;;4997978;28;20089;-49
2022/07/31 10:22:44;;;;;;;9.55;8.55;;;20.10;99.90;;;;;;4998523;28;20130;-47
2022/07/31 10:25:15;;;;;;;12.27;8.82;;;20.10;99.90;;;;;;4998131;28;20053;-50
2022/07/31 10:27:41;;;;;;;12.70;9.35;;;20.10;99.90;;;;;;4998275;28;20413;-50
2022/07/31 10:30:08;;;;;;;11.63;9.70;;;20.10;99.90;;;;;;4998360;28;20500;-47
2022/07/31 10:32:34;;;;;;;11.02;9.15;;;19.90;99.90;;;;;;4998010;28;20042;-48
2022/07/31 10:35:04;;;;;;;11.98;10.13;;;19.90;99.90;;;;;;4997296;28;20774;-47
2022/07/31 10:37:32;;;;;;;11.05;9.77;;;19.90;99.90;;;;;;4997733;28;20042;-48
2022/07/31 10:40:24;;;;;;;14.00;10.82;;;19.70;99.90;;;;;;4998231;28;20104;-48
2022/07/31 10:43:08;;;;;;;13.18;11.43;;;19.70;99.90;;;;;;4989385;28;20061;-47
2022/07/31 10:45:51;;;;;;;14.90;11.45;;;19.60;99.90;;;;;;4997982;28;20049;-48
2022/07/31 10:48:18;;;;;;;14.18;12.43;;;19.50;99.90;;;;;;4997407;28;20085;-51
2022/07/31 10:50:45;;;;;;;13.10;11.15;;;19.70;99.90;;;;;;4998532;28;20543;-48
2022/07/31 10:53:14;;;;;;;14.40;12.95;;;19.60;99.90;;;;;;4998656;28;20046;-47
2022/07/31 10:55:40;;;;;;;15.93;14.00;;;19.70;99.90;;;;;;4996715;28;20069;-48
2022/07/31 10:58:10;;;;;;;14.98;13.32;;;19.80;99.90;;;;;;4997517;28;20042;-48
2022/07/31 11:00:36;;;;;;;14.63;13.15;;;19.70;99.90;;;;;;4997931;28;20161;-48
2022/07/31 11:03:15;;;;;;;15.00;13.32;;;19.80;99.90;;;;;;4997872;28;20058;-48
2022/07/31 11:05:55;;;;;;;15.07;12.65;;;19.80;99.90;;;;;;4995395;28;20125;-51
2022/07/31 11:08:21;;;;;;;15.23;12.75;;;19.70;99.90;;;;;;4988667;28;20383;-51
2022/07/31 11:10:52;;;;;;;18.08;14.07;;;19.70;99.90;;;;;;4996328;28;20057;-49
2022/07/31 11:13:18;;;;;;;14.20;12.80;;;19.70;99.90;;;;;;4995381;28;20053;-49
2022/07/31 11:15:45;;;;;;;15.95;13.75;;;19.70;99.90;;;;;;4998361;28;20100;-50
2022/07/31 11:18:17;;;;;;;15.98;14.32;;;19.80;99.90;;;;;;5003374;28;20048;-49
2022/07/31 11:20:45;;;;;;;16.73;14.57;;;19.80;99.90;;;;;;5008596;28;20121;-49
2022/07/31 11:23:16;;;;;;;17.35;14.50;;;19.70;99.90;;;;;;5004487;28;20053;-51
2022/07/31 11:25:44;;;;;;;16.10;14.38;;;19.70;99.90;;;;;;5001927;28;20128;-52
2022/07/31 11:28:23;;;;;;;15.05;13.50;;;19.80;99.90;;;;;;4998330;28;20046;-49
2022/07/31 11:30:58;;;;;;;18.15;13.88;;;19.70;99.90;;;;;;5001377;28;20041;-56
2022/07/31 11:33:28;;;;;;;16.13;13.00;;;19.60;99.90;;;;;;5000545;28;20042;-50
2022/07/31 11:35:56;;;;;;;14.88;13.18;;;19.60;99.90;;;;;;5001439;28;20475;-48
2022/07/31 11:38:28;;;;;;;14.52;13.10;;;19.60;99.90;;;;;;4999405;28;20655;-49
2022/07/31 11:40:54;;;;;;;16.33;13.27;;;19.70;99.90;;;;;;5001184;28;20493;-48
2022/07/31 11:43:20;;;;;;;13.63;12.30;;;19.60;99.90;;;;;;4998621;28;20597;-46
2022/07/31 11:45:51;;;;;;;15.07;13.48;;;19.60;99.90;;;;;;5001099;28;20081;-51
2022/07/31 11:48:18;;;;;;;15.10;12.90;;;19.60;99.90;;;;;;5000230;28;20084;-53
2022/07/31 11:50:44;;;;;;;11.70;10.43;;;19.70;99.90;;;;;;5000625;28;20045;-46
2022/07/31 11:53:11;;;;;;;13.70;12.07;;;19.60;99.90;;;;;;5001532;28;20136;-47
2022/07/31 11:55:50;;;;;;;14.95;12.60;;;19.50;99.90;;;;;;5001023;28;20045;-49
2022/07/31 11:58:18;;;;;;;13.82;12.25;;;19.60;99.90;;;;;;4999607;28;20286;-51
2022/07/31 12:00:59;;;;;;;15.43;13.27;;;19.40;99.90;;;;;;4999833;28;20046;-46
2022/07/31 12:03:31;;;;;;;14.07;12.77;;;19.50;99.90;;;;;;5000515;28;20045;-50
2022/07/31 12:05:57;;;;;;;15.77;13.65;;;19.50;99.90;;;;;;4997356;28;20132;-48
2022/07/31 12:08:24;;;;;;;15.63;13.95;;;19.50;99.90;;;;;;4989503;28;20112;-47
2022/07/31 12:11:00;;;;;;;15.65;13.57;;;19.60;99.90;;;;;;4981444;28;20145;-47
2022/07/31 12:13:27;;;;;;;15.57;13.88;;;19.60;99.90;;;;;;4979289;28;20069;-50
2022/07/31 12:16:10;;;;;;;14.95;13.50;;;19.50;99.90;;;;;;4980880;28;20274;-51
2022/07/31 12:18:55;;;;;;;14.23;12.73;;;19.50;99.90;;;;;;5004830;28;20374;-48
2022/07/31 12:21:30;;;;;;;14.07;11.65;;;19.40;99.90;;;;;;5006527;28;20419;-50
2022/07/31 12:23:57;;;;;;;12.50;10.77;;;19.30;99.90;;;;;;5005374;28;20088;-50
2022/07/31 12:26:25;;;;;;;13.23;11.82;;;19.30;99.90;;;;;;5000420;28;20128;-48
2022/07/31 12:28:57;;;;;;;15.35;12.50;;;19.30;99.90;;;;;;4999380;28;20054;-47
2022/07/31 12:31:23;;;;;;;14.60;12.60;;;19.30;99.90;;;;;;5000715;28;20042;-46
2022/07/31 12:33:48;;;;;;;15.52;13.93;;;19.30;99.90;;;;;;5001294;28;20045;-46
2022/07/31 12:36:15;;;;;;;16.75;14.85;;;19.30;99.90;;;;;;5000670;28;20050;-47
2022/07/31 12:38:42;;;;;;;17.27;15.48;;;19.20;99.90;;;;;;5000600;28;20052;-47
2022/07/31 12:41:08;;;;;;;17.58;14.23;;;19.20;99.90;;;;;;5001049;28;20050;-47
2022/07/31 12:43:37;;;;;;;19.52;17.42;;;19.10;99.90;;;;;;4982056;28;20061;-46
2022/07/31 12:46:05;;;;;;;17.02;15.25;;;19.00;99.90;;;;;;5000069;28;20061;-47